sensor_id;sensor_type;location;lat;lon;timestamp;temperature;humidity
45761;DHT22;31471;51.040;14.414;2022-10-17T00:01:04;11.40;99.90
45761;DHT22;31471;51.040;14.414;2022-10-17T00:03:29;11.40;99.90
45761;DHT22;31471;51.040;14.414;2022-10-17T00:05:55;11.30;99.90
45761;DHT22;31471;51.040;14.414;2022-10-17T00:08:21;11.30;99.90
45761;DHT22;31471;51.040;14.414;2022-10-17T00:11:01;11.30;99.90
45761;DHT22;31471;51.040;14.414;2022-10-17T00:13:27;11.30;99.90
45761;DHT22;31471;51.040;14.414;2022-10-17T00:15:53;11.30;99.90
45761;DHT22;31471;51.040;14.414;2022-10-17T00:18:19;11.40;99.90
45761;DHT22;31471;51.040;14.414;2022-10-17T00:20:45;11.40;99.90
45761;DHT22;31471;51.040;14.414;2022-10-17T00:23:10;11.40;99.90
45761;DHT22;31471;51.040;14.414;2022-10-17T00:25:36;11.30;99.90
45761;DHT22;31471;51.040;14.414;2022-10-17T00:28:02;11.30;99.90
45761;DHT22;31471;51.040;14.414;2022-10-17T00:30:28;11.40;99.90
45761;DHT22;31471;51.040;14.414;2022-10-17T00:32:54;11.30;99.90
45761;DHT22;31471;51.040;14.414;2022-10-17T00:35:19;11.30;99.90
45761;DHT22;31471;51.040;14.414;2022-10-17T00:37:47;11.30;99.90
45761;DHT22;31471;51.040;14.414;2022-10-17T00:40:12;11.30;99.90
45761;DHT22;31471;51.040;14.414;2022-10-17T00:42:38;11.30;99.90
45761;DHT22;31471;51.040;14.414;2022-10-17T00:45:28;11.20;99.90
45761;DHT22;31471;51.040;14.414;2022-10-17T00:48:05;11.20;99.90
45761;DHT22;31471;51.040;14.414;2022-10-17T00:50:34;11.20;99.90
45761;DHT22;31471;51.040;14.414;2022-10-17T00:53:03;11.10;99.90
45761;DHT22;31471;51.040;14.414;2022-10-17T00:55:32;11.10;99.90
45761;DHT22;31471;51.040;14.414;2022-10-17T00:58:00;11.10;99.90
45761;DHT22;31471;51.040;14.414;2022-10-17T01:00:26;11.00;99.90
45761;DHT22;31471;51.040;14.414;2022-10-17T01:02:52;11.00;99.90
45761;DHT22;31471;51.040;14.414;2022-10-17T01:05:19;10.90;99.90
45761;DHT22;31471;51.040;14.414;2022-10-17T01:07:46;10.90;99.90
45761;DHT22;31471;51.040;14.414;2022-10-17T01:10:13;10.90;99.90
45761;DHT22;31471;51.040;14.414;2022-10-17T01:20:55;10.80;99.90
45761;DHT22;31471;51.040;14.414;2022-10-17T01:31:24;10.80;99.90
45761;DHT22;31471;51.040;14.414;2022-10-17T01:39:25;10.70;99.90
45761;DHT22;31471;51.040;14.414;2022-10-17T01:41:57;10.70;99.90
45761;DHT22;31471;51.040;14.414;2022-10-17T01:44:42;10.70;99.90
45761;DHT22;31471;51.040;14.414;2022-10-17T01:47:14;10.70;99.90
45761;DHT22;31471;51.040;14.414;2022-10-17T01:49:43;10.70;99.90
45761;DHT22;31471;51.040;14.414;2022-10-17T01:52:14;10.60;99.90
45761;DHT22;31471;51.040;14.414;2022-10-17T01:54:44;10.60;99.90
45761;DHT22;31471;51.040;14.414;2022-10-17T01:57:18;10.60;99.90
45761;DHT22;31471;51.040;14.414;2022-10-17T01:59:46;10.50;99.90
45761;DHT22;31471;51.040;14.414;2022-10-17T02:02:15;10.60;99.90
45761;DHT22;31471;51.040;14.414;2022-10-17T02:04:41;10.50;99.90
45761;DHT22;31471;51.040;14.414;2022-10-17T02:07:08;10.50;99.90
45761;DHT22;31471;51.040;14.414;2022-10-17T02:09:34;10.50;99.90
45761;DHT22;31471;51.040;14.414;2022-10-17T02:14:36;10.40;99.90
45761;DHT22;31471;51.040;14.414;2022-10-17T02:17:51;10.30;99.90
45761;DHT22;31471;51.040;14.414;2022-10-17T02:20:23;10.30;99.90
45761;DHT22;31471;51.040;14.414;2022-10-17T02:23:10;10.30;99.90
45761;DHT22;31471;51.040;14.414;2022-10-17T02:26:01;10.30;99.90
45761;DHT22;31471;51.040;14.414;2022-10-17T02:28:56;10.20;99.90
45761;DHT22;31471;51.040;14.414;2022-10-17T02:31:29;10.10;99.90
45761;DHT22;31471;51.040;14.414;2022-10-17T02:34:01;10.20;99.90
45761;DHT22;31471;51.040;14.414;2022-10-17T02:36:34;10.10;99.90
45761;DHT22;31471;51.040;14.414;2022-10-17T02:39:02;10.10;99.90
45761;DHT22;31471;51.040;14.414;2022-10-17T02:41:29;10.00;99.90
45761;DHT22;31471;51.040;14.414;2022-10-17T02:43:56;10.00;99.90
45761;DHT22;31471;51.040;14.414;2022-10-17T02:46:24;10.00;99.90
45761;DHT22;31471;51.040;14.414;2022-10-17T02:49:02;10.00;99.90
45761;DHT22;31471;51.040;14.414;2022-10-17T02:51:56;10.00;99.90
45761;DHT22;31471;51.040;14.414;2022-10-17T02:54:36;10.00;99.90
45761;DHT22;31471;51.040;14.414;2022-10-17T02:57:11;9.90;99.90
45761;DHT22;31471;51.040;14.414;2022-10-17T02:59:39;9.80;99.90
45761;DHT22;31471;51.040;14.414;2022-10-17T03:02:06;9.80;99.90
45761;DHT22;31471;51.040;14.414;2022-10-17T03:04:32;9.80;99.90
45761;DHT22;31471;51.040;14.414;2022-10-17T03:06:58;9.80;99.90
45761;DHT22;31471;51.040;14.414;2022-10-17T03:09:24;9.90;99.90
45761;DHT22;31471;51.040;14.414;2022-10-17T03:11:49;9.70;99.90
45761;DHT22;31471;51.040;14.414;2022-10-17T03:14:15;9.70;99.90
45761;DHT22;31471;51.040;14.414;2022-10-17T03:16:42;9.70;99.90
45761;DHT22;31471;51.040;14.414;2022-10-17T03:19:08;9.70;99.90
45761;DHT22;31471;51.040;14.414;2022-10-17T03:21:33;9.70;99.90
45761;DHT22;31471;51.040;14.414;2022-10-17T03:24:02;9.70;99.90
45761;DHT22;31471;51.040;14.414;2022-10-17T03:26:28;9.60;99.90
45761;DHT22;31471;51.040;14.414;2022-10-17T03:28:55;9.60;99.90
45761;DHT22;31471;51.040;14.414;2022-10-17T03:31:21;9.60;99.90
45761;DHT22;31471;51.040;14.414;2022-10-17T03:33:48;9.60;99.90
45761;DHT22;31471;51.040;14.414;2022-10-17T03:36:15;9.50;99.90
45761;DHT22;31471;51.040;14.414;2022-10-17T03:38:44;9.50;99.90
45761;DHT22;31471;51.040;14.414;2022-10-17T03:41:09;9.60;99.90
45761;DHT22;31471;51.040;14.414;2022-10-17T03:43:37;9.60;99.90
45761;DHT22;31471;51.040;14.414;2022-10-17T03:46:03;9.50;99.90
45761;DHT22;31471;51.040;14.414;2022-10-17T03:48:29;9.50;99.90
45761;DHT22;31471;51.040;14.414;2022-10-17T03:51:03;9.50;99.90
45761;DHT22;31471;51.040;14.414;2022-10-17T03:53:32;9.40;99.90
45761;DHT22;31471;51.040;14.414;2022-10-17T03:56:11;9.40;99.90
45761;DHT22;31471;51.040;14.414;2022-10-17T03:58:37;9.40;99.90
45761;DHT22;31471;51.040;14.414;2022-10-17T04:01:06;9.40;99.90
45761;DHT22;31471;51.040;14.414;2022-10-17T04:03:32;9.30;99.90
45761;DHT22;31471;51.040;14.414;2022-10-17T04:05:58;9.40;99.90
45761;DHT22;31471;51.040;14.414;2022-10-17T04:08:25;9.30;99.90
45761;DHT22;31471;51.040;14.414;2022-10-17T04:11:15;9.30;99.90
45761;DHT22;31471;51.040;14.414;2022-10-17T04:13:42;9.30;99.90
45761;DHT22;31471;51.040;14.414;2022-10-17T04:16:09;9.20;99.90
45761;DHT22;31471;51.040;14.414;2022-10-17T04:18:41;9.30;99.90
45761;DHT22;31471;51.040;14.414;2022-10-17T04:21:06;9.30;99.90
45761;DHT22;31471;51.040;14.414;2022-10-17T04:23:32;9.30;99.90
45761;DHT22;31471;51.040;14.414;2022-10-17T04:26:07;9.30;99.90
45761;DHT22;31471;51.040;14.414;2022-10-17T04:28:33;9.40;99.90
45761;DHT22;31471;51.040;14.414;2022-10-17T04:31:06;9.40;99.90
45761;DHT22;31471;51.040;14.414;2022-10-17T04:33:40;9.40;99.90
45761;DHT22;31471;51.040;14.414;2022-10-17T04:36:10;9.40;99.90
45761;DHT22;31471;51.040;14.414;2022-10-17T04:38:36;9.40;99.90
45761;DHT22;31471;51.040;14.414;2022-10-17T04:41:04;9.50;99.90
45761;DHT22;31471;51.040;14.414;2022-10-17T04:43:36;9.50;99.90
45761;DHT22;31471;51.040;14.414;2022-10-17T04:46:04;9.50;99.90
45761;DHT22;31471;51.040;14.414;2022-10-17T04:48:30;9.40;99.90
45761;DHT22;31471;51.040;14.414;2022-10-17T04:51:07;9.50;99.90
45761;DHT22;31471;51.040;14.414;2022-10-17T04:53:43;9.40;99.90
45761;DHT22;31471;51.040;14.414;2022-10-17T04:56:12;9.40;99.90
45761;DHT22;31471;51.040;14.414;2022-10-17T04:58:39;9.40;99.90
45761;DHT22;31471;51.040;14.414;2022-10-17T05:01:10;9.30;99.90
45761;DHT22;31471;51.040;14.414;2022-10-17T05:03:37;9.30;99.90
45761;DHT22;31471;51.040;14.414;2022-10-17T05:06:23;9.30;99.90
45761;DHT22;31471;51.040;14.414;2022-10-17T05:09:08;9.30;99.90
45761;DHT22;31471;51.040;14.414;2022-10-17T05:11:34;9.20;99.90
45761;DHT22;31471;51.040;14.414;2022-10-17T05:14:01;9.20;99.90
45761;DHT22;31471;51.040;14.414;2022-10-17T05:16:28;9.20;99.90
45761;DHT22;31471;51.040;14.414;2022-10-17T05:18:56;9.20;99.90
45761;DHT22;31471;51.040;14.414;2022-10-17T05:21:23;9.20;99.90
45761;DHT22;31471;51.040;14.414;2022-10-17T05:23:50;9.20;99.90
45761;DHT22;31471;51.040;14.414;2022-10-17T05:26:16;9.20;99.90
45761;DHT22;31471;51.040;14.414;2022-10-17T05:28:42;9.20;99.90
45761;DHT22;31471;51.040;14.414;2022-10-17T05:31:09;9.20;99.90
45761;DHT22;31471;51.040;14.414;2022-10-17T05:33:35;9.20;99.90
45761;DHT22;31471;51.040;14.414;2022-10-17T05:36:02;9.10;99.90
45761;DHT22;31471;51.040;14.414;2022-10-17T05:38:28;9.10;99.90
45761;DHT22;31471;51.040;14.414;2022-10-17T05:40:58;9.20;99.90
45761;DHT22;31471;51.040;14.414;2022-10-17T05:43:24;9.10;99.90
45761;DHT22;31471;51.040;14.414;2022-10-17T05:45:51;9.20;99.90
45761;DHT22;31471;51.040;14.414;2022-10-17T05:48:20;9.10;99.90
45761;DHT22;31471;51.040;14.414;2022-10-17T05:50:46;9.20;99.90
45761;DHT22;31471;51.040;14.414;2022-10-17T05:53:15;9.20;99.90
45761;DHT22;31471;51.040;14.414;2022-10-17T05:55:45;9.20;99.90
45761;DHT22;31471;51.040;14.414;2022-10-17T05:58:11;9.20;99.90
45761;DHT22;31471;51.040;14.414;2022-10-17T06:00:41;9.20;99.90
45761;DHT22;31471;51.040;14.414;2022-10-17T06:03:11;9.20;99.90
45761;DHT22;31471;51.040;14.414;2022-10-17T06:05:36;9.20;99.90
45761;DHT22;31471;51.040;14.414;2022-10-17T06:08:02;9.20;99.90
45761;DHT22;31471;51.040;14.414;2022-10-17T06:10:31;9.30;99.90
45761;DHT22;31471;51.040;14.414;2022-10-17T06:12:57;9.30;99.90
45761;DHT22;31471;51.040;14.414;2022-10-17T06:15:24;9.30;99.90
45761;DHT22;31471;51.040;14.414;2022-10-17T06:17:56;9.40;99.90
45761;DHT22;31471;51.040;14.414;2022-10-17T06:20:22;9.40;99.90
45761;DHT22;31471;51.040;14.414;2022-10-17T06:22:48;9.50;99.90
45761;DHT22;31471;51.040;14.414;2022-10-17T06:25:21;9.50;99.90
45761;DHT22;31471;51.040;14.414;2022-10-17T06:27:47;9.50;99.90
45761;DHT22;31471;51.040;14.414;2022-10-17T06:30:12;9.60;99.90
45761;DHT22;31471;51.040;14.414;2022-10-17T06:32:38;9.70;99.90
45761;DHT22;31471;51.040;14.414;2022-10-17T06:35:04;9.80;99.90
45761;DHT22;31471;51.040;14.414;2022-10-17T06:37:31;9.90;99.90
45761;DHT22;31471;51.040;14.414;2022-10-17T06:39:58;10.10;99.90
45761;DHT22;31471;51.040;14.414;2022-10-17T06:42:24;10.40;99.90
45761;DHT22;31471;51.040;14.414;2022-10-17T06:45:09;10.70;99.90
45761;DHT22;31471;51.040;14.414;2022-10-17T06:47:49;11.20;99.90
45761;DHT22;31471;51.040;14.414;2022-10-17T06:50:33;11.60;99.90
45761;DHT22;31471;51.040;14.414;2022-10-17T06:53:20;11.80;99.90
45761;DHT22;31471;51.040;14.414;2022-10-17T06:55:50;12.10;99.90
45761;DHT22;31471;51.040;14.414;2022-10-17T06:58:37;12.20;99.90
45761;DHT22;31471;51.040;14.414;2022-10-17T07:01:11;12.40;99.90
45761;DHT22;31471;51.040;14.414;2022-10-17T07:03:37;12.40;99.90
45761;DHT22;31471;51.040;14.414;2022-10-17T07:06:03;12.50;99.90
45761;DHT22;31471;51.040;14.414;2022-10-17T07:08:29;12.70;99.90
45761;DHT22;31471;51.040;14.414;2022-10-17T07:10:56;12.70;99.90
45761;DHT22;31471;51.040;14.414;2022-10-17T07:13:22;12.90;99.90
45761;DHT22;31471;51.040;14.414;2022-10-17T07:15:48;13.00;99.90
45761;DHT22;31471;51.040;14.414;2022-10-17T07:18:15;13.10;99.90
45761;DHT22;31471;51.040;14.414;2022-10-17T07:20:41;13.20;99.90
45761;DHT22;31471;51.040;14.414;2022-10-17T07:23:07;13.30;99.90
45761;DHT22;31471;51.040;14.414;2022-10-17T07:25:32;13.30;99.90
45761;DHT22;31471;51.040;14.414;2022-10-17T07:28:04;13.40;99.90
45761;DHT22;31471;51.040;14.414;2022-10-17T07:30:31;13.60;99.90
45761;DHT22;31471;51.040;14.414;2022-10-17T07:33:05;13.70;99.90
45761;DHT22;31471;51.040;14.414;2022-10-17T07:35:30;13.70;99.90
45761;DHT22;31471;51.040;14.414;2022-10-17T07:37:56;13.80;99.90
45761;DHT22;31471;51.040;14.414;2022-10-17T07:40:22;13.90;99.90
45761;DHT22;31471;51.040;14.414;2022-10-17T07:42:47;14.00;99.90
45761;DHT22;31471;51.040;14.414;2022-10-17T07:45:13;14.00;99.90
45761;DHT22;31471;51.040;14.414;2022-10-17T07:47:41;14.20;99.90
45761;DHT22;31471;51.040;14.414;2022-10-17T07:50:08;14.30;99.90
45761;DHT22;31471;51.040;14.414;2022-10-17T07:52:34;14.30;99.90
45761;DHT22;31471;51.040;14.414;2022-10-17T07:54:59;14.40;99.90
45761;DHT22;31471;51.040;14.414;2022-10-17T07:57:25;14.60;99.90
45761;DHT22;31471;51.040;14.414;2022-10-17T07:59:51;14.60;99.90
45761;DHT22;31471;51.040;14.414;2022-10-17T08:02:22;14.70;99.90
45761;DHT22;31471;51.040;14.414;2022-10-17T08:04:48;14.80;99.90
45761;DHT22;31471;51.040;14.414;2022-10-17T08:07:13;14.80;99.90
45761;DHT22;31471;51.040;14.414;2022-10-17T08:09:40;15.00;99.90
45761;DHT22;31471;51.040;14.414;2022-10-17T08:12:06;15.10;99.90
45761;DHT22;31471;51.040;14.414;2022-10-17T08:14:32;15.20;99.90
45761;DHT22;31471;51.040;14.414;2022-10-17T08:16:57;15.30;99.90
45761;DHT22;31471;51.040;14.414;2022-10-17T08:19:23;15.40;99.90
45761;DHT22;31471;51.040;14.414;2022-10-17T08:21:48;15.50;99.90
45761;DHT22;31471;51.040;14.414;2022-10-17T08:24:14;15.60;99.90
45761;DHT22;31471;51.040;14.414;2022-10-17T08:26:40;15.60;99.90
45761;DHT22;31471;51.040;14.414;2022-10-17T08:29:10;15.70;99.90
45761;DHT22;31471;51.040;14.414;2022-10-17T08:31:36;15.80;99.90
45761;DHT22;31471;51.040;14.414;2022-10-17T08:34:02;15.90;99.90
45761;DHT22;31471;51.040;14.414;2022-10-17T08:36:27;16.00;99.90
45761;DHT22;31471;51.040;14.414;2022-10-17T08:38:53;16.10;99.90
45761;DHT22;31471;51.040;14.414;2022-10-17T08:41:23;16.30;99.90
45761;DHT22;31471;51.040;14.414;2022-10-17T08:44:35;16.40;99.90
45761;DHT22;31471;51.040;14.414;2022-10-17T08:47:07;16.40;99.90
45761;DHT22;31471;51.040;14.414;2022-10-17T08:49:42;16.50;99.90
45761;DHT22;31471;51.040;14.414;2022-10-17T08:52:28;16.60;99.90
45761;DHT22;31471;51.040;14.414;2022-10-17T08:54:57;16.70;99.90
45761;DHT22;31471;51.040;14.414;2022-10-17T08:57:24;16.80;99.90
45761;DHT22;31471;51.040;14.414;2022-10-17T08:59:52;16.90;99.90
45761;DHT22;31471;51.040;14.414;2022-10-17T09:02:53;16.90;99.90
45761;DHT22;31471;51.040;14.414;2022-10-17T09:05:41;17.10;99.90
45761;DHT22;31471;51.040;14.414;2022-10-17T09:08:27;17.20;99.90
45761;DHT22;31471;51.040;14.414;2022-10-17T09:11:12;17.10;99.90
45761;DHT22;31471;51.040;14.414;2022-10-17T09:19:18;17.40;99.90
45761;DHT22;31471;51.040;14.414;2022-10-17T09:21:58;17.40;99.90
45761;DHT22;31471;51.040;14.414;2022-10-17T09:24:43;17.50;99.90
45761;DHT22;31471;51.040;14.414;2022-10-17T09:27:25;17.50;99.90
45761;DHT22;31471;51.040;14.414;2022-10-17T09:32:37;17.70;99.90
45761;DHT22;31471;51.040;14.414;2022-10-17T09:35:02;17.80;99.90
45761;DHT22;31471;51.040;14.414;2022-10-17T09:37:30;17.80;99.90
45761;DHT22;31471;51.040;14.414;2022-10-17T09:39:56;17.80;99.90
45761;DHT22;31471;51.040;14.414;2022-10-17T09:42:22;17.90;99.90
45761;DHT22;31471;51.040;14.414;2022-10-17T09:45:16;17.90;99.90
45761;DHT22;31471;51.040;14.414;2022-10-17T09:47:56;17.90;99.90
45761;DHT22;31471;51.040;14.414;2022-10-17T09:50:30;18.00;99.90
45761;DHT22;31471;51.040;14.414;2022-10-17T09:53:01;18.10;99.90
45761;DHT22;31471;51.040;14.414;2022-10-17T09:55:56;18.20;99.90
45761;DHT22;31471;51.040;14.414;2022-10-17T09:58:22;18.20;99.90
45761;DHT22;31471;51.040;14.414;2022-10-17T10:00:48;18.20;99.90
45761;DHT22;31471;51.040;14.414;2022-10-17T10:03:25;18.20;99.90
45761;DHT22;31471;51.040;14.414;2022-10-17T10:05:59;18.20;99.90
45761;DHT22;31471;51.040;14.414;2022-10-17T10:08:31;18.20;99.90
45761;DHT22;31471;51.040;14.414;2022-10-17T10:11:00;18.20;99.90
45761;DHT22;31471;51.040;14.414;2022-10-17T10:13:28;18.10;99.90
45761;DHT22;31471;51.040;14.414;2022-10-17T10:16:22;18.20;99.90
45761;DHT22;31471;51.040;14.414;2022-10-17T10:18:49;18.20;99.90
45761;DHT22;31471;51.040;14.414;2022-10-17T10:21:21;18.40;99.90
45761;DHT22;31471;51.040;14.414;2022-10-17T10:24:09;18.40;99.90
45761;DHT22;31471;51.040;14.414;2022-10-17T10:29:18;18.60;99.90
45761;DHT22;31471;51.040;14.414;2022-10-17T10:31:44;18.70;99.90
45761;DHT22;31471;51.040;14.414;2022-10-17T10:34:13;18.80;99.90
45761;DHT22;31471;51.040;14.414;2022-10-17T10:37:01;18.80;99.90
45761;DHT22;31471;51.040;14.414;2022-10-17T10:42:00;18.90;99.90
45761;DHT22;31471;51.040;14.414;2022-10-17T10:44:28;19.00;99.90
45761;DHT22;31471;51.040;14.414;2022-10-17T10:47:15;19.10;99.90
45761;DHT22;31471;51.040;14.414;2022-10-17T10:49:42;19.20;99.90
45761;DHT22;31471;51.040;14.414;2022-10-17T10:52:14;19.20;99.90
45761;DHT22;31471;51.040;14.414;2022-10-17T10:55:02;19.30;99.90
45761;DHT22;31471;51.040;14.414;2022-10-17T10:57:32;19.30;99.90
45761;DHT22;31471;51.040;14.414;2022-10-17T11:00:05;19.30;99.90
45761;DHT22;31471;51.040;14.414;2022-10-17T11:08:30;19.60;99.90
45761;DHT22;31471;51.040;14.414;2022-10-17T11:11:26;19.70;99.90
45761;DHT22;31471;51.040;14.414;2022-10-17T11:14:22;19.70;99.90
45761;DHT22;31471;51.040;14.414;2022-10-17T11:19:49;19.90;99.90
45761;DHT22;31471;51.040;14.414;2022-10-17T11:22:39;20.00;99.90
45761;DHT22;31471;51.040;14.414;2022-10-17T11:27:36;20.10;99.90
45761;DHT22;31471;51.040;14.414;2022-10-17T11:30:03;20.10;99.90
45761;DHT22;31471;51.040;14.414;2022-10-17T11:32:51;20.20;99.90
45761;DHT22;31471;51.040;14.414;2022-10-17T11:35:22;20.30;99.90
45761;DHT22;31471;51.040;14.414;2022-10-17T11:38:16;20.30;99.90
45761;DHT22;31471;51.040;14.414;2022-10-17T11:40:50;20.30;99.90
45761;DHT22;31471;51.040;14.414;2022-10-17T11:43:22;20.40;99.90
45761;DHT22;31471;51.040;14.414;2022-10-17T11:45:58;20.50;99.90
45761;DHT22;31471;51.040;14.414;2022-10-17T11:48:29;20.50;99.90
45761;DHT22;31471;51.040;14.414;2022-10-17T11:51:09;20.60;99.90
45761;DHT22;31471;51.040;14.414;2022-10-17T11:56:39;20.70;99.90
45761;DHT22;31471;51.040;14.414;2022-10-17T12:02:19;20.70;99.90
45761;DHT22;31471;51.040;14.414;2022-10-17T12:05:02;20.70;99.90
45761;DHT22;31471;51.040;14.414;2022-10-17T12:07:49;20.80;99.90
45761;DHT22;31471;51.040;14.414;2022-10-17T12:12:45;20.80;99.90
45761;DHT22;31471;51.040;14.414;2022-10-17T12:17:38;20.90;99.90
45761;DHT22;31471;51.040;14.414;2022-10-17T12:22:49;20.90;99.90
45761;DHT22;31471;51.040;14.414;2022-10-17T12:25:21;21.00;99.90
45761;DHT22;31471;51.040;14.414;2022-10-17T12:27:49;21.10;99.90
45761;DHT22;31471;51.040;14.414;2022-10-17T12:30:23;21.00;99.90
45761;DHT22;31471;51.040;14.414;2022-10-17T12:33:17;21.10;99.90
45761;DHT22;31471;51.040;14.414;2022-10-17T12:35:50;21.20;99.90
45761;DHT22;31471;51.040;14.414;2022-10-17T12:46:03;21.30;99.90
45761;DHT22;31471;51.040;14.414;2022-10-17T12:51:17;21.30;99.90
45761;DHT22;31471;51.040;14.414;2022-10-17T12:53:56;21.30;99.90
45761;DHT22;31471;51.040;14.414;2022-10-17T12:56:44;21.40;99.90
45761;DHT22;31471;51.040;14.414;2022-10-17T12:59:28;21.30;99.90
45761;DHT22;31471;51.040;14.414;2022-10-17T13:01:57;21.30;99.90
45761;DHT22;31471;51.040;14.414;2022-10-17T13:04:24;21.30;99.90
45761;DHT22;31471;51.040;14.414;2022-10-17T13:06:57;21.30;99.90
45761;DHT22;31471;51.040;14.414;2022-10-17T13:11:52;21.40;99.90
45761;DHT22;31471;51.040;14.414;2022-10-17T13:14:21;21.40;99.90
45761;DHT22;31471;51.040;14.414;2022-10-17T13:16:59;21.50;99.90
45761;DHT22;31471;51.040;14.414;2022-10-17T13:19:44;21.50;99.90
45761;DHT22;31471;51.040;14.414;2022-10-17T13:22:17;21.40;99.90
45761;DHT22;31471;51.040;14.414;2022-10-17T13:24:43;21.40;99.90
45761;DHT22;31471;51.040;14.414;2022-10-17T13:27:30;21.40;99.90
45761;DHT22;31471;51.040;14.414;2022-10-17T13:29:56;21.40;99.90
45761;DHT22;31471;51.040;14.414;2022-10-17T13:32:23;21.40;99.90
45761;DHT22;31471;51.040;14.414;2022-10-17T13:35:20;21.40;99.90
45761;DHT22;31471;51.040;14.414;2022-10-17T13:37:46;21.50;99.90
45761;DHT22;31471;51.040;14.414;2022-10-17T13:40:18;21.40;99.90
45761;DHT22;31471;51.040;14.414;2022-10-17T13:42:45;21.50;99.90
45761;DHT22;31471;51.040;14.414;2022-10-17T13:45:37;21.50;99.90
45761;DHT22;31471;51.040;14.414;2022-10-17T13:48:22;21.60;99.90
45761;DHT22;31471;51.040;14.414;2022-10-17T13:50:50;21.60;99.90
45761;DHT22;31471;51.040;14.414;2022-10-17T13:56:00;21.70;99.90
45761;DHT22;31471;51.040;14.414;2022-10-17T13:58:28;21.70;99.90
45761;DHT22;31471;51.040;14.414;2022-10-17T14:00:54;21.70;99.90
45761;DHT22;31471;51.040;14.414;2022-10-17T14:03:21;21.70;99.90
45761;DHT22;31471;51.040;14.414;2022-10-17T14:08:38;21.50;99.90
45761;DHT22;31471;51.040;14.414;2022-10-17T14:11:37;21.40;99.90
45761;DHT22;31471;51.040;14.414;2022-10-17T14:14:05;21.30;99.90
45761;DHT22;31471;51.040;14.414;2022-10-17T14:16:38;21.30;99.90
45761;DHT22;31471;51.040;14.414;2022-10-17T14:19:05;21.20;99.90
45761;DHT22;31471;51.040;14.414;2022-10-17T14:21:39;21.20;99.90
45761;DHT22;31471;51.040;14.414;2022-10-17T14:26:49;21.10;99.90
45761;DHT22;31471;51.040;14.414;2022-10-17T14:29:25;21.00;99.90
45761;DHT22;31471;51.040;14.414;2022-10-17T14:32:04;20.80;99.90
45761;DHT22;31471;51.040;14.414;2022-10-17T14:34:36;20.80;99.90
45761;DHT22;31471;51.040;14.414;2022-10-17T14:37:11;20.80;99.90
45761;DHT22;31471;51.040;14.414;2022-10-17T14:39:48;20.60;99.90
45761;DHT22;31471;51.040;14.414;2022-10-17T14:42:18;20.50;99.90
45761;DHT22;31471;51.040;14.414;2022-10-17T14:44:48;20.50;99.90
45761;DHT22;31471;51.040;14.414;2022-10-17T14:47:19;20.40;99.90
45761;DHT22;31471;51.040;14.414;2022-10-17T14:49:49;20.40;99.90
45761;DHT22;31471;51.040;14.414;2022-10-17T14:54:41;20.10;99.90
45761;DHT22;31471;51.040;14.414;2022-10-17T14:57:21;20.10;99.90
45761;DHT22;31471;51.040;14.414;2022-10-17T14:59:47;19.90;99.90
45761;DHT22;31471;51.040;14.414;2022-10-17T15:02:13;19.80;99.90
45761;DHT22;31471;51.040;14.414;2022-10-17T15:04:39;19.80;99.90
45761;DHT22;31471;51.040;14.414;2022-10-17T15:07:04;19.70;99.90
45761;DHT22;31471;51.040;14.414;2022-10-17T15:09:30;19.60;99.90
45761;DHT22;31471;51.040;14.414;2022-10-17T15:11:59;19.60;99.90
45761;DHT22;31471;51.040;14.414;2022-10-17T15:14:29;19.50;99.90
45761;DHT22;31471;51.040;14.414;2022-10-17T15:16:54;19.40;99.90
45761;DHT22;31471;51.040;14.414;2022-10-17T15:19:20;19.40;99.90
45761;DHT22;31471;51.040;14.414;2022-10-17T15:21:45;19.30;99.90
45761;DHT22;31471;51.040;14.414;2022-10-17T15:24:11;19.20;99.90
45761;DHT22;31471;51.040;14.414;2022-10-17T15:26:37;19.20;99.90
45761;DHT22;31471;51.040;14.414;2022-10-17T15:29:02;19.10;99.90
45761;DHT22;31471;51.040;14.414;2022-10-17T15:31:29;19.00;99.90
45761;DHT22;31471;51.040;14.414;2022-10-17T15:33:55;18.90;99.90
45761;DHT22;31471;51.040;14.414;2022-10-17T15:36:28;18.90;99.90
45761;DHT22;31471;51.040;14.414;2022-10-17T15:38:59;18.80;99.90
45761;DHT22;31471;51.040;14.414;2022-10-17T15:41:27;18.70;99.90
45761;DHT22;31471;51.040;14.414;2022-10-17T15:43:53;18.70;99.90
45761;DHT22;31471;51.040;14.414;2022-10-17T15:46:20;18.60;99.90
45761;DHT22;31471;51.040;14.414;2022-10-17T15:48:48;18.60;99.90
45761;DHT22;31471;51.040;14.414;2022-10-17T15:51:14;18.50;99.90
45761;DHT22;31471;51.040;14.414;2022-10-17T15:53:40;18.40;99.90
45761;DHT22;31471;51.040;14.414;2022-10-17T15:56:07;18.40;99.90
45761;DHT22;31471;51.040;14.414;2022-10-17T15:58:39;18.30;99.90
45761;DHT22;31471;51.040;14.414;2022-10-17T16:01:05;18.40;99.90
45761;DHT22;31471;51.040;14.414;2022-10-17T16:03:32;18.30;99.90
45761;DHT22;31471;51.040;14.414;2022-10-17T16:05:58;18.30;99.90
45761;DHT22;31471;51.040;14.414;2022-10-17T16:08:23;18.20;99.90
45761;DHT22;31471;51.040;14.414;2022-10-17T16:10:49;18.20;99.90
45761;DHT22;31471;51.040;14.414;2022-10-17T16:13:18;18.10;99.90
45761;DHT22;31471;51.040;14.414;2022-10-17T16:15:44;18.10;99.90
45761;DHT22;31471;51.040;14.414;2022-10-17T16:18:09;18.00;99.90
45761;DHT22;31471;51.040;14.414;2022-10-17T16:20:35;17.90;99.90
45761;DHT22;31471;51.040;14.414;2022-10-17T16:23:03;17.90;99.90
45761;DHT22;31471;51.040;14.414;2022-10-17T16:25:29;17.90;99.90
45761;DHT22;31471;51.040;14.414;2022-10-17T16:27:58;17.90;99.90
45761;DHT22;31471;51.040;14.414;2022-10-17T16:30:26;17.90;99.90
45761;DHT22;31471;51.040;14.414;2022-10-17T16:32:53;17.70;99.90
45761;DHT22;31471;51.040;14.414;2022-10-17T16:35:25;17.80;99.90
45761;DHT22;31471;51.040;14.414;2022-10-17T16:37:51;17.70;99.90
45761;DHT22;31471;51.040;14.414;2022-10-17T16:40:16;17.70;99.90
45761;DHT22;31471;51.040;14.414;2022-10-17T16:42:42;17.60;99.90
45761;DHT22;31471;51.040;14.414;2022-10-17T16:45:08;17.60;99.90
45761;DHT22;31471;51.040;14.414;2022-10-17T16:47:35;17.60;99.90
45761;DHT22;31471;51.040;14.414;2022-10-17T16:50:00;17.60;99.90
45761;DHT22;31471;51.040;14.414;2022-10-17T16:52:26;17.50;99.90
45761;DHT22;31471;51.040;14.414;2022-10-17T16:54:51;17.50;99.90
45761;DHT22;31471;51.040;14.414;2022-10-17T16:57:17;17.40;99.90
45761;DHT22;31471;51.040;14.414;2022-10-17T16:59:43;17.40;99.90
45761;DHT22;31471;51.040;14.414;2022-10-17T17:02:10;17.40;99.90
45761;DHT22;31471;51.040;14.414;2022-10-17T17:04:35;17.30;99.90
45761;DHT22;31471;51.040;14.414;2022-10-17T17:07:01;17.30;99.90
45761;DHT22;31471;51.040;14.414;2022-10-17T17:09:27;17.30;99.90